sensor_id;sensor_type;location;lat;lon;timestamp;pressure;altitude;pressure_sealevel;temperature;humidity
61318;BME280;47201;40.428;-8.436;2022-09-09T00:01:25;100950.84;;;20.59;100.00
61318;BME280;47201;40.428;-8.436;2022-09-09T00:03:59;100958.22;;;20.53;100.00
61318;BME280;47201;40.428;-8.436;2022-09-09T00:08:15;100946.91;;;20.48;100.00
61318;BME280;47201;40.428;-8.436;2022-09-09T00:10:28;100951.34;;;20.47;100.00
61318;BME280;47201;40.428;-8.436;2022-09-09T00:12:48;100943.28;;;20.50;100.00
61318;BME280;47201;40.428;-8.436;2022-09-09T00:15:00;100947.13;;;20.41;100.00
61318;BME280;47201;40.428;-8.436;2022-09-09T00:17:09;100942.88;;;20.37;100.00
61318;BME280;47201;40.428;-8.436;2022-09-09T00:19:36;100947.28;;;20.38;100.00
61318;BME280;47201;40.428;-8.436;2022-09-09T00:24:27;100944.22;;;20.25;100.00
61318;BME280;47201;40.428;-8.436;2022-09-09T00:28:43;100942.56;;;20.23;100.00
61318;BME280;47201;40.428;-8.436;2022-09-09T00:30:46;100941.47;;;20.28;100.00
61318;BME280;47201;40.428;-8.436;2022-09-09T00:32:53;100938.06;;;20.25;100.00
61318;BME280;47201;40.428;-8.436;2022-09-09T00:34:58;100943.78;;;20.36;100.00
61318;BME280;47201;40.428;-8.436;2022-09-09T00:37:02;100944.63;;;20.15;100.00
61318;BME280;47201;40.428;-8.436;2022-09-09T00:39:12;100941.97;;;20.38;100.00
61318;BME280;47201;40.428;-8.436;2022-09-09T00:43:25;100936.16;;;20.28;100.00
61318;BME280;47201;40.428;-8.436;2022-09-09T00:47:53;100931.19;;;20.41;100.00
61318;BME280;47201;40.428;-8.436;2022-09-09T00:50:01;100924.38;;;20.36;100.00
61318;BME280;47201;40.428;-8.436;2022-09-09T00:54:27;100929.13;;;20.26;100.00
61318;BME280;47201;40.428;-8.436;2022-09-09T01:01:12;100914.84;;;20.06;100.00
61318;BME280;47201;40.428;-8.436;2022-09-09T01:07:48;100919.69;;;20.19;100.00
61318;BME280;47201;40.428;-8.436;2022-09-09T01:09:56;100918.09;;;20.15;100.00
61318;BME280;47201;40.428;-8.436;2022-09-09T01:12:07;100914.19;;;20.23;100.00
61318;BME280;47201;40.428;-8.436;2022-09-09T01:16:37;100916.94;;;20.22;100.00
61318;BME280;47201;40.428;-8.436;2022-09-09T01:18:46;100921.19;;;20.26;100.00
61318;BME280;47201;40.428;-8.436;2022-09-09T01:23:30;100923.22;;;20.19;100.00
61318;BME280;47201;40.428;-8.436;2022-09-09T01:26:18;100920.25;;;20.27;100.00
61318;BME280;47201;40.428;-8.436;2022-09-09T01:28:26;100925.97;;;20.16;100.00
61318;BME280;47201;40.428;-8.436;2022-09-09T01:30:38;100919.88;;;20.14;100.00
61318;BME280;47201;40.428;-8.436;2022-09-09T01:34:41;100921.91;;;20.07;100.00
61318;BME280;47201;40.428;-8.436;2022-09-09T01:36:58;100917.50;;;20.06;100.00
61318;BME280;47201;40.428;-8.436;2022-09-09T01:39:01;100924.47;;;20.09;100.00
61318;BME280;47201;40.428;-8.436;2022-09-09T01:41:02;100916.75;;;20.03;100.00
61318;BME280;47201;40.428;-8.436;2022-09-09T01:43:13;100921.25;;;20.01;100.00
61318;BME280;47201;40.428;-8.436;2022-09-09T01:45:14;100913.47;;;19.96;100.00
61318;BME280;47201;40.428;-8.436;2022-09-09T01:47:15;100924.06;;;19.96;100.00
61318;BME280;47201;40.428;-8.436;2022-09-09T01:49:51;100922.41;;;19.93;100.00
61318;BME280;47201;40.428;-8.436;2022-09-09T01:51:57;100919.91;;;19.89;100.00
61318;BME280;47201;40.428;-8.436;2022-09-09T01:54:04;100919.13;;;19.87;100.00
61318;BME280;47201;40.428;-8.436;2022-09-09T01:56:43;100921.03;;;19.81;100.00
61318;BME280;47201;40.428;-8.436;2022-09-09T02:03:28;100928.84;;;19.61;100.00
61318;BME280;47201;40.428;-8.436;2022-09-09T02:05:38;100912.34;;;19.53;100.00
61318;BME280;47201;40.428;-8.436;2022-09-09T02:07:49;100920.22;;;19.56;100.00
61318;BME280;47201;40.428;-8.436;2022-09-09T02:10:12;100920.28;;;19.54;100.00
61318;BME280;47201;40.428;-8.436;2022-09-09T02:12:25;100910.59;;;19.53;100.00
61318;BME280;47201;40.428;-8.436;2022-09-09T02:14:38;100914.97;;;19.54;100.00
61318;BME280;47201;40.428;-8.436;2022-09-09T02:16:51;100917.66;;;19.53;100.00
61318;BME280;47201;40.428;-8.436;2022-09-09T02:19:13;100916.81;;;19.52;100.00
61318;BME280;47201;40.428;-8.436;2022-09-09T02:21:37;100918.69;;;19.48;100.00
61318;BME280;47201;40.428;-8.436;2022-09-09T02:23:39;100905.50;;;19.47;100.00
61318;BME280;47201;40.428;-8.436;2022-09-09T02:25:46;100913.41;;;19.48;100.00
61318;BME280;47201;40.428;-8.436;2022-09-09T02:27:55;100913.41;;;19.48;100.00
61318;BME280;47201;40.428;-8.436;2022-09-09T02:30:00;100918.69;;;19.48;100.00
61318;BME280;47201;40.428;-8.436;2022-09-09T02:32:24;100923.09;;;19.49;100.00
61318;BME280;47201;40.428;-8.436;2022-09-09T02:34:27;100915.97;;;19.50;100.00
61318;BME280;47201;40.428;-8.436;2022-09-09T02:36:32;100918.63;;;19.50;100.00
61318;BME280;47201;40.428;-8.436;2022-09-09T02:38:38;100910.75;;;19.48;100.00
61318;BME280;47201;40.428;-8.436;2022-09-09T02:40:46;100913.41;;;19.48;100.00
61318;BME280;47201;40.428;-8.436;2022-09-09T02:42:48;100910.63;;;19.52;100.00
61318;BME280;47201;40.428;-8.436;2022-09-09T02:44:51;100906.25;;;19.50;100.00
61318;BME280;47201;40.428;-8.436;2022-09-09T02:53:18;100908.19;;;19.45;100.00
61318;BME280;47201;40.428;-8.436;2022-09-09T02:57:35;100905.53;;;19.45;100.00
61318;BME280;47201;40.428;-8.436;2022-09-09T02:59:39;100905.69;;;19.41;100.00
61318;BME280;47201;40.428;-8.436;2022-09-09T03:01:40;100907.56;;;19.39;100.00
61318;BME280;47201;40.428;-8.436;2022-09-09T03:03:43;100911.13;;;19.38;100.00
61318;BME280;47201;40.428;-8.436;2022-09-09T03:05:49;100902.34;;;19.36;100.00
61318;BME280;47201;40.428;-8.436;2022-09-09T03:07:50;100906.81;;;19.35;100.00
61318;BME280;47201;40.428;-8.436;2022-09-09T03:09:52;100899.88;;;19.31;100.00
61318;BME280;47201;40.428;-8.436;2022-09-09T03:11:54;100899.88;;;19.31;100.00
61318;BME280;47201;40.428;-8.436;2022-09-09T03:13:56;100899.88;;;19.31;100.00
61318;BME280;47201;40.428;-8.436;2022-09-09T03:15:58;100899.00;;;19.30;100.00
61318;BME280;47201;40.428;-8.436;2022-09-09T03:18:01;100902.50;;;19.31;100.00
61318;BME280;47201;40.428;-8.436;2022-09-09T03:20:03;100901.59;;;19.32;100.00
61318;BME280;47201;40.428;-8.436;2022-09-09T03:22:05;100903.34;;;19.33;100.00
61318;BME280;47201;40.428;-8.436;2022-09-09T03:24:08;100898.03;;;19.33;100.00
61318;BME280;47201;40.428;-8.436;2022-09-09T03:26:10;100901.53;;;19.33;100.00
61318;BME280;47201;40.428;-8.436;2022-09-09T03:28:16;100898.03;;;19.33;100.00
61318;BME280;47201;40.428;-8.436;2022-09-09T03:30:17;100898.84;;;19.35;100.00
61318;BME280;47201;40.428;-8.436;2022-09-09T03:32:19;100897.13;;;19.34;100.00
61318;BME280;47201;40.428;-8.436;2022-09-09T03:34:20;100895.22;;;19.38;100.00
61318;BME280;47201;40.428;-8.436;2022-09-09T03:36:21;100897.81;;;19.39;100.00
61318;BME280;47201;40.428;-8.436;2022-09-09T03:38:25;100901.34;;;19.40;100.00
61318;BME280;47201;40.428;-8.436;2022-09-09T03:40:26;100890.78;;;19.38;100.00
61318;BME280;47201;40.428;-8.436;2022-09-09T03:42:28;100910.91;;;19.44;100.00
61318;BME280;47201;40.428;-8.436;2022-09-09T03:44:30;100895.84;;;19.44;100.00
61318;BME280;47201;40.428;-8.436;2022-09-09T03:46:31;100904.63;;;19.46;100.00
61318;BME280;47201;40.428;-8.436;2022-09-09T03:48:33;100902.84;;;19.47;100.00
61318;BME280;47201;40.428;-8.436;2022-09-09T03:50:34;100906.28;;;19.49;100.00
61318;BME280;47201;40.428;-8.436;2022-09-09T03:52:36;100904.53;;;19.49;100.00
61318;BME280;47201;40.428;-8.436;2022-09-09T03:54:38;100902.66;;;19.52;100.00
61318;BME280;47201;40.428;-8.436;2022-09-09T03:56:40;100906.19;;;19.52;100.00
61318;BME280;47201;40.428;-8.436;2022-09-09T03:58:43;100901.72;;;19.54;100.00
61318;BME280;47201;40.428;-8.436;2022-09-09T04:00:57;100907.97;;;19.52;100.00
61318;BME280;47201;40.428;-8.436;2022-09-09T04:03:00;100906.38;;;19.47;100.00
61318;BME280;47201;40.428;-8.436;2022-09-09T04:05:01;100902.88;;;19.45;100.00
61318;BME280;47201;40.428;-8.436;2022-09-09T04:07:02;100901.28;;;19.41;100.00
61318;BME280;47201;40.428;-8.436;2022-09-09T04:09:06;100899.53;;;19.40;100.00
61318;BME280;47201;40.428;-8.436;2022-09-09T04:11:08;100905.81;;;19.38;100.00
61318;BME280;47201;40.428;-8.436;2022-09-09T04:13:11;100898.94;;;19.32;100.00
61318;BME280;47201;40.428;-8.436;2022-09-09T04:15:13;100899.88;;;19.31;100.00
61318;BME280;47201;40.428;-8.436;2022-09-09T04:17:14;100898.13;;;19.30;100.00
61318;BME280;47201;40.428;-8.436;2022-09-09T04:19:15;100898.25;;;19.27;100.00
61318;BME280;47201;40.428;-8.436;2022-09-09T04:21:17;100896.50;;;19.26;100.00
61318;BME280;47201;40.428;-8.436;2022-09-09T04:23:19;100891.28;;;19.24;100.00
61318;BME280;47201;40.428;-8.436;2022-09-09T04:25:20;100894.78;;;19.25;100.00
61318;BME280;47201;40.428;-8.436;2022-09-09T04:27:21;100897.50;;;19.23;100.00
61318;BME280;47201;40.428;-8.436;2022-09-09T04:29:22;100888.72;;;19.21;100.00
61318;BME280;47201;40.428;-8.436;2022-09-09T04:31:23;100897.59;;;19.20;100.00
61318;BME280;47201;40.428;-8.436;2022-09-09T04:33:26;100894.03;;;19.21;100.00
61318;BME280;47201;40.428;-8.436;2022-09-09T04:35:27;100894.03;;;19.21;100.00
61318;BME280;47201;40.428;-8.436;2022-09-09T04:37:29;100892.41;;;19.17;100.00
61318;BME280;47201;40.428;-8.436;2022-09-09T04:39:30;100896.75;;;19.20;100.00
61318;BME280;47201;40.428;-8.436;2022-09-09T04:41:36;100896.81;;;19.16;100.00
61318;BME280;47201;40.428;-8.436;2022-09-09T04:43:38;100900.38;;;19.17;100.00
61318;BME280;47201;40.428;-8.436;2022-09-09T04:45:42;100899.47;;;19.16;100.00
61318;BME280;47201;40.428;-8.436;2022-09-09T04:47:42;100895.16;;;19.14;100.00
61318;BME280;47201;40.428;-8.436;2022-09-09T04:49:43;100901.38;;;19.13;100.00
61318;BME280;47201;40.428;-8.436;2022-09-09T04:51:44;100905.09;;;19.07;100.00
61318;BME280;47201;40.428;-8.436;2022-09-09T04:53:47;100889.25;;;19.06;100.00
61318;BME280;47201;40.428;-8.436;2022-09-09T04:55:50;100899.03;;;19.03;100.00
61318;BME280;47201;40.428;-8.436;2022-09-09T04:57:51;100894.47;;;19.07;100.00
61318;BME280;47201;40.428;-8.436;2022-09-09T04:59:52;100899.94;;;19.02;100.00
61318;BME280;47201;40.428;-8.436;2022-09-09T05:01:53;100900.81;;;19.03;100.00
61318;BME280;47201;40.428;-8.436;2022-09-09T05:03:55;100899.16;;;19.00;100.00
61318;BME280;47201;40.428;-8.436;2022-09-09T05:06:08;100905.28;;;19.01;100.00
61318;BME280;47201;40.428;-8.436;2022-09-09T05:08:10;100903.56;;;19.00;100.00
61318;BME280;47201;40.428;-8.436;2022-09-09T05:10:12;100906.13;;;19.03;100.00
61318;BME280;47201;40.428;-8.436;2022-09-09T05:12:15;100906.19;;;19.01;100.00
61318;BME280;47201;40.428;-8.436;2022-09-09T05:14:24;100909.75;;;19.00;100.00
61318;BME280;47201;40.428;-8.436;2022-09-09T05:16:25;100910.66;;;18.99;100.00
61318;BME280;47201;40.428;-8.436;2022-09-09T05:18:27;100917.84;;;18.96;100.00
61318;BME280;47201;40.428;-8.436;2022-09-09T05:20:28;100912.59;;;18.94;100.00
61318;BME280;47201;40.428;-8.436;2022-09-09T05:22:29;100915.38;;;18.90;100.00
61318;BME280;47201;40.428;-8.436;2022-09-09T05:24:31;100910.97;;;18.89;100.00
61318;BME280;47201;40.428;-8.436;2022-09-09T05:26:37;100920.69;;;18.88;100.00
61318;BME280;47201;40.428;-8.436;2022-09-09T05:28:37;100915.44;;;18.86;100.00
61318;BME280;47201;40.428;-8.436;2022-09-09T05:30:38;100919.84;;;18.87;100.00
61318;BME280;47201;40.428;-8.436;2022-09-09T05:32:40;100918.94;;;18.89;100.00
61318;BME280;47201;40.428;-8.436;2022-09-09T05:34:41;100918.88;;;18.90;100.00
61318;BME280;47201;40.428;-8.436;2022-09-09T05:36:42;100915.31;;;18.91;100.00
61318;BME280;47201;40.428;-8.436;2022-09-09T05:38:43;100915.38;;;18.90;100.00
61318;BME280;47201;40.428;-8.436;2022-09-09T05:40:47;100916.22;;;18.90;100.00
61318;BME280;47201;40.428;-8.436;2022-09-09T05:42:49;100915.31;;;18.91;100.00
61318;BME280;47201;40.428;-8.436;2022-09-09T05:44:51;100920.56;;;18.93;100.00
61318;BME280;47201;40.428;-8.436;2022-09-09T05:46:55;100925.03;;;18.92;100.00
61318;BME280;47201;40.428;-8.436;2022-09-09T05:48:56;100919.00;;;18.85;100.00
61318;BME280;47201;40.428;-8.436;2022-09-09T05:51:06;100930.34;;;18.91;100.00
61318;BME280;47201;40.428;-8.436;2022-09-09T05:53:11;100927.69;;;18.91;100.00
61318;BME280;47201;40.428;-8.436;2022-09-09T05:55:12;100916.28;;;18.89;100.00
61318;BME280;47201;40.428;-8.436;2022-09-09T05:57:12;100919.78;;;18.89;100.00
61318;BME280;47201;40.428;-8.436;2022-09-09T05:59:13;100919.06;;;18.84;100.00
61318;BME280;47201;40.428;-8.436;2022-09-09T06:01:17;100920.88;;;18.83;100.00
61318;BME280;47201;40.428;-8.436;2022-09-09T06:03:19;100918.25;;;18.82;100.00
61318;BME280;47201;40.428;-8.436;2022-09-09T06:05:26;100927.06;;;18.82;100.00
61318;BME280;47201;40.428;-8.436;2022-09-09T06:07:28;100922.56;;;18.84;100.00
61318;BME280;47201;40.428;-8.436;2022-09-09T06:09:29;100919.84;;;18.87;100.00
61318;BME280;47201;40.428;-8.436;2022-09-09T06:11:31;100929.34;;;18.95;100.00
61318;BME280;47201;40.428;-8.436;2022-09-09T06:13:36;100927.78;;;18.87;100.00
61318;BME280;47201;40.428;-8.436;2022-09-09T06:15:50;100930.53;;;18.84;100.00
61318;BME280;47201;40.428;-8.436;2022-09-09T06:17:54;100933.22;;;18.83;100.00
61318;BME280;47201;40.428;-8.436;2022-09-09T06:19:56;100932.31;;;18.84;100.00
61318;BME280;47201;40.428;-8.436;2022-09-09T06:21:57;100936.69;;;18.85;100.00
61318;BME280;47201;40.428;-8.436;2022-09-09T06:23:59;100935.72;;;18.87;100.00
61318;BME280;47201;40.428;-8.436;2022-09-09T06:26:16;100933.09;;;18.87;100.00
61318;BME280;47201;40.428;-8.436;2022-09-09T06:28:22;100937.47;;;18.89;100.00
61318;BME280;47201;40.428;-8.436;2022-09-09T06:30:23;100943.59;;;18.91;100.00
61318;BME280;47201;40.428;-8.436;2022-09-09T06:32:23;100946.25;;;18.91;100.00
61318;BME280;47201;40.428;-8.436;2022-09-09T06:34:24;100949.69;;;18.94;100.00
61318;BME280;47201;40.428;-8.436;2022-09-09T06:36:31;100954.97;;;18.94;100.00
61318;BME280;47201;40.428;-8.436;2022-09-09T06:38:32;100952.16;;;18.99;100.00
61318;BME280;47201;40.428;-8.436;2022-09-09T06:40:34;100947.69;;;19.01;100.00
61318;BME280;47201;40.428;-8.436;2022-09-09T06:42:35;100954.66;;;19.03;100.00
61318;BME280;47201;40.428;-8.436;2022-09-09T06:44:56;100953.75;;;19.05;100.00
61318;BME280;47201;40.428;-8.436;2022-09-09T06:47:08;100957.16;;;19.08;100.00
61318;BME280;47201;40.428;-8.436;2022-09-09T06:49:09;100957.06;;;19.11;100.00
61318;BME280;47201;40.428;-8.436;2022-09-09T06:53:16;100964.75;;;19.19;100.00
61318;BME280;47201;40.428;-8.436;2022-09-09T06:55:17;100964.72;;;19.21;100.00
61318;BME280;47201;40.428;-8.436;2022-09-09T06:57:18;100968.69;;;19.34;100.00
61318;BME280;47201;40.428;-8.436;2022-09-09T06:59:19;100964.00;;;19.42;100.00
61318;BME280;47201;40.428;-8.436;2022-09-09T07:01:26;100967.03;;;19.57;100.00
61318;BME280;47201;40.428;-8.436;2022-09-09T07:03:28;100962.63;;;19.56;100.00
61318;BME280;47201;40.428;-8.436;2022-09-09T07:05:29;100974.69;;;19.64;100.00
61318;BME280;47201;40.428;-8.436;2022-09-09T07:07:30;100969.16;;;19.71;100.00
61318;BME280;47201;40.428;-8.436;2022-09-09T07:09:31;100976.22;;;19.72;100.00
61318;BME280;47201;40.428;-8.436;2022-09-09T07:11:33;100981.25;;;19.79;100.00
61318;BME280;47201;40.428;-8.436;2022-09-09T07:13:34;100976.13;;;19.75;100.00
61318;BME280;47201;40.428;-8.436;2022-09-09T07:15:35;100986.31;;;19.87;100.00
61318;BME280;47201;40.428;-8.436;2022-09-09T07:17:36;100985.84;;;20.00;100.00
61318;BME280;47201;40.428;-8.436;2022-09-09T07:19:37;100990.00;;;20.07;100.00
61318;BME280;47201;40.428;-8.436;2022-09-09T07:21:39;100994.00;;;20.19;100.00
61318;BME280;47201;40.428;-8.436;2022-09-09T07:23:41;100990.66;;;20.13;100.00
61318;BME280;47201;40.428;-8.436;2022-09-09T07:25:45;100996.88;;;20.12;100.00
61318;BME280;47201;40.428;-8.436;2022-09-09T07:27:49;100998.16;;;20.02;100.00
61318;BME280;47201;40.428;-8.436;2022-09-09T07:29:50;100998.75;;;20.10;100.00
61318;BME280;47201;40.428;-8.436;2022-09-09T07:31:52;101003.06;;;20.13;100.00
61318;BME280;47201;40.428;-8.436;2022-09-09T07:33:58;100993.72;;;20.03;100.00
61318;BME280;47201;40.428;-8.436;2022-09-09T07:36:09;100998.75;;;20.10;100.00
61318;BME280;47201;40.428;-8.436;2022-09-09T07:38:12;101001.50;;;20.07;100.00
61318;BME280;47201;40.428;-8.436;2022-09-09T07:40:12;101008.41;;;20.11;100.00
61318;BME280;47201;40.428;-8.436;2022-09-09T07:42:14;101009.00;;;20.20;100.00
61318;BME280;47201;40.428;-8.436;2022-09-09T07:44:21;101006.25;;;20.23;100.00
61318;BME280;47201;40.428;-8.436;2022-09-09T07:46:26;101001.28;;;20.37;100.00
61318;BME280;47201;40.428;-8.436;2022-09-09T07:48:27;100995.50;;;20.26;100.00
61318;BME280;47201;40.428;-8.436;2022-09-09T07:50:28;101002.31;;;20.33;100.00
61318;BME280;47201;40.428;-8.436;2022-09-09T07:52:29;100996.69;;;21.31;100.00
61318;BME280;47201;40.428;-8.436;2022-09-09T07:54:34;100999.97;;;22.21;100.00
61318;BME280;47201;40.428;-8.436;2022-09-09T07:56:39;100999.34;;;22.73;100.00
61318;BME280;47201;40.428;-8.436;2022-09-09T07:58:41;101003.72;;;23.29;100.00
61318;BME280;47201;40.428;-8.436;2022-09-09T08:00:41;101000.06;;;24.18;100.00
61318;BME280;47201;40.428;-8.436;2022-09-09T08:02:44;100997.66;;;25.10;100.00
61318;BME280;47201;40.428;-8.436;2022-09-09T08:04:46;100999.72;;;25.21;100.00
61318;BME280;47201;40.428;-8.436;2022-09-09T08:06:57;101014.13;;;24.54;100.00
61318;BME280;47201;40.428;-8.436;2022-09-09T08:09:00;101004.63;;;23.99;100.00
61318;BME280;47201;40.428;-8.436;2022-09-09T08:11:50;101005.13;;;23.19;100.00
61318;BME280;47201;40.428;-8.436;2022-09-09T08:13:51;101009.75;;;22.60;100.00
61318;BME280;47201;40.428;-8.436;2022-09-09T08:15:52;101000.31;;;22.32;100.00
61318;BME280;47201;40.428;-8.436;2022-09-09T08:17:54;101006.06;;;22.03;100.00
61318;BME280;47201;40.428;-8.436;2022-09-09T08:19:56;101010.59;;;21.81;100.00
61318;BME280;47201;40.428;-8.436;2022-09-09T08:22:00;101005.88;;;21.67;100.00
61318;BME280;47201;40.428;-8.436;2022-09-09T08:24:03;101011.91;;;21.50;100.00
61318;BME280;47201;40.428;-8.436;2022-09-09T08:26:16;101011.47;;;21.38;100.00
61318;BME280;47201;40.428;-8.436;2022-09-09T08:28:18;101005.09;;;21.43;100.00
61318;BME280;47201;40.428;-8.436;2022-09-09T08:30:19;101014.13;;;21.38;100.00
61318;BME280;47201;40.428;-8.436;2022-09-09T08:32:20;101007.34;;;21.31;100.00
61318;BME280;47201;40.428;-8.436;2022-09-09T08:34:21;101005.81;;;21.26;100.00
61318;BME280;47201;40.428;-8.436;2022-09-09T08:36:25;101013.25;;;21.17;100.00
61318;BME280;47201;40.428;-8.436;2022-09-09T08:38:26;101015.94;;;21.16;100.00
61318;BME280;47201;40.428;-8.436;2022-09-09T08:40:28;101026.09;;;21.06;100.00
61318;BME280;47201;40.428;-8.436;2022-09-09T08:42:49;101011.81;;;21.08;100.00
61318;BME280;47201;40.428;-8.436;2022-09-09T08:45:05;101023.81;;;20.97;100.00
61318;BME280;47201;40.428;-8.436;2022-09-09T08:51:30;101022.72;;;20.80;100.00
61318;BME280;47201;40.428;-8.436;2022-09-09T08:53:48;101022.16;;;20.70;100.00
61318;BME280;47201;40.428;-8.436;2022-09-09T08:56:09;101020.44;;;20.69;100.00
61318;BME280;47201;40.428;-8.436;2022-09-09T08:58:25;101023.00;;;20.72;100.00
61318;BME280;47201;40.428;-8.436;2022-09-09T09:00:57;101022.72;;;20.80;100.00
61318;BME280;47201;40.428;-8.436;2022-09-09T09:03:06;101023.56;;;20.81;100.00
61318;BME280;47201;40.428;-8.436;2022-09-09T09:09:50;101038.78;;;20.99;100.00
61318;BME280;47201;40.428;-8.436;2022-09-09T09:12:01;101033.59;;;20.96;100.00
61318;BME280;47201;40.428;-8.436;2022-09-09T09:14:13;101034.06;;;21.06;100.00
61318;BME280;47201;40.428;-8.436;2022-09-09T09:16:35;101039.09;;;21.14;100.00
61318;BME280;47201;40.428;-8.436;2022-09-09T09:18:39;101035.38;;;21.18;100.00
61318;BME280;47201;40.428;-8.436;2022-09-09T09:22:54;101038.88;;;21.40;100.00
61318;BME280;47201;40.428;-8.436;2022-09-09T09:25:20;101040.78;;;21.37;100.00
61318;BME280;47201;40.428;-8.436;2022-09-09T09:27:32;101038.16;;;21.59;100.00
61318;BME280;47201;40.428;-8.436;2022-09-09T09:29:37;101036.41;;;21.79;100.00
61318;BME280;47201;40.428;-8.436;2022-09-09T09:31:43;101040.34;;;21.91;100.00
61318;BME280;47201;40.428;-8.436;2022-09-09T09:33:51;101050.63;;;21.98;100.00
61318;BME280;47201;40.428;-8.436;2022-09-09T09:35:56;101047.41;;;21.92;100.00
61318;BME280;47201;40.428;-8.436;2022-09-09T09:37:57;101050.09;;;21.90;100.00
61318;BME280;47201;40.428;-8.436;2022-09-09T09:40:19;101054.28;;;21.96;100.00
61318;BME280;47201;40.428;-8.436;2022-09-09T09:42:19;101057.56;;;22.02;100.00
61318;BME280;47201;40.428;-8.436;2022-09-09T09:44:32;101053.78;;;22.27;100.00
61318;BME280;47201;40.428;-8.436;2022-09-09T09:46:42;101061.28;;;22.40;100.00
61318;BME280;47201;40.428;-8.436;2022-09-09T09:49:05;101064.88;;;22.39;100.00
61318;BME280;47201;40.428;-8.436;2022-09-09T09:51:11;101061.53;;;22.33;100.00
61318;BME280;47201;40.428;-8.436;2022-09-09T09:53:21;101060.00;;;22.68;100.00
61318;BME280;47201;40.428;-8.436;2022-09-09T09:55:25;101062.94;;;22.80;100.00
61318;BME280;47201;40.428;-8.436;2022-09-09T09:57:29;101070.34;;;22.93;100.00
61318;BME280;47201;40.428;-8.436;2022-09-09T09:59:35;101072.41;;;23.05;100.00
61318;BME280;47201;40.428;-8.436;2022-09-09T10:01:37;101080.72;;;23.18;100.00
61318;BME280;47201;40.428;-8.436;2022-09-09T10:03:54;101070.69;;;23.23;100.00
61318;BME280;47201;40.428;-8.436;2022-09-09T10:05:56;101072.00;;;23.51;100.00
61318;BME280;47201;40.428;-8.436;2022-09-09T10:08:05;101072.31;;;23.80;100.00
61318;BME280;47201;40.428;-8.436;2022-09-09T10:10:13;101080.78;;;23.53;100.00
61318;BME280;47201;40.428;-8.436;2022-09-09T10:17:01;101093.38;;;23.86;100.00
61318;BME280;47201;40.428;-8.436;2022-09-09T10:19:15;101091.69;;;23.66;100.00
61318;BME280;47201;40.428;-8.436;2022-09-09T10:26:02;101095.94;;;23.88;100.00
61318;BME280;47201;40.428;-8.436;2022-09-09T10:30:20;101104.97;;;23.85;100.00
61318;BME280;47201;40.428;-8.436;2022-09-09T10:34:52;101101.63;;;23.64;100.00
61318;BME280;47201;40.428;-8.436;2022-09-09T10:36:56;101106.06;;;23.64;100.00
61318;BME280;47201;40.428;-8.436;2022-09-09T10:39:04;101102.78;;;23.76;100.00
61318;BME280;47201;40.428;-8.436;2022-09-09T10:41:34;101100.75;;;23.81;100.00
61318;BME280;47201;40.428;-8.436;2022-09-09T10:43:58;101105.75;;;23.52;100.00
61318;BME280;47201;40.428;-8.436;2022-09-09T10:46:23;101100.03;;;23.77;100.00
61318;BME280;47201;40.428;-8.436;2022-09-09T10:55:10;101097.06;;;24.52;100.00
61318;BME280;47201;40.428;-8.436;2022-09-09T10:57:21;101100.03;;;24.64;100.00
61318;BME280;47201;40.428;-8.436;2022-09-09T10:59:33;101094.19;;;24.73;100.00
61318;BME280;47201;40.428;-8.436;2022-09-09T11:01:46;101096.38;;;24.65;100.00
61318;BME280;47201;40.428;-8.436;2022-09-09T11:03:55;101096.56;;;24.62;100.00
61318;BME280;47201;40.428;-8.436;2022-09-09T11:06:05;101093.78;;;24.97;100.00
61318;BME280;47201;40.428;-8.436;2022-09-09T11:08:19;101092.03;;;25.28;100.00
61318;BME280;47201;40.428;-8.436;2022-09-09T11:10:38;101092.69;;;25.63;100.00
61318;BME280;47201;40.428;-8.436;2022-09-09T11:12:43;101091.03;;;25.91;100.00
61318;BME280;47201;40.428;-8.436;2022-09-09T11:14:55;101089.44;;;26.03;100.00
61318;BME280;47201;40.428;-8.436;2022-09-09T11:17:04;101087.66;;;25.73;100.00
61318;BME280;47201;40.428;-8.436;2022-09-09T11:19:15;101086.72;;;25.89;100.00
61318;BME280;47201;40.428;-8.436;2022-09-09T11:21:37;101085.50;;;25.64;100.00
61318;BME280;47201;40.428;-8.436;2022-09-09T11:23:44;101076.16;;;25.71;100.00
61318;BME280;47201;40.428;-8.436;2022-09-09T11:25:55;101067.28;;;26.16;100.00
61318;BME280;47201;40.428;-8.436;2022-09-09T11:30:21;101071.19;;;26.82;100.00
61318;BME280;47201;40.428;-8.436;2022-09-09T11:42:20;101053.41;;;29.15;100.00
61318;BME280;47201;40.428;-8.436;2022-09-09T11:44:29;101053.91;;;29.20;100.00
61318;BME280;47201;40.428;-8.436;2022-09-09T11:46:36;101048.09;;;30.09;100.00
61318;BME280;47201;40.428;-8.436;2022-09-09T11:48:40;101055.25;;;32.07;89.50
61318;BME280;47201;40.428;-8.436;2022-09-09T11:50:46;101045.38;;;33.38;73.88
61318;BME280;47201;40.428;-8.436;2022-09-09T11:53:18;101042.34;;;34.56;64.37
61318;BME280;47201;40.428;-8.436;2022-09-09T11:55:31;101036.41;;;35.61;58.71
61318;BME280;47201;40.428;-8.436;2022-09-09T11:57:36;101043.97;;;36.36;54.83
61318;BME280;47201;40.428;-8.436;2022-09-09T11:59:37;101041.13;;;36.38;54.83
61318;BME280;47201;40.428;-8.436;2022-09-09T12:01:45;101043.41;;;36.59;54.95
61318;BME280;47201;40.428;-8.436;2022-09-09T12:03:52;101044.50;;;36.82;54.11
61318;BME280;47201;40.428;-8.436;2022-09-09T12:05:56;101036.22;;;37.34;52.07
61318;BME280;47201;40.428;-8.436;2022-09-09T12:07:58;101039.78;;;37.34;51.24
61318;BME280;47201;40.428;-8.436;2022-09-09T12:12:35;101025.38;;;34.16;58.17
61318;BME280;47201;40.428;-8.436;2022-09-09T12:16:43;101031.31;;;31.71;66.65
61318;BME280;47201;40.428;-8.436;2022-09-09T12:18:44;101033.47;;;31.24;67.78